createdAt,value
2023-03-31T00:00:35.368Z,500.00
2023-03-31T00:01:35.461Z,500.00
2023-03-31T00:02:35.702Z,500.00
2023-03-31T00:03:35.880Z,500.00
2023-03-31T00:04:35.946Z,501.00
2023-03-31T00:05:36.027Z,503.00
2023-03-31T00:06:36.220Z,505.00
2023-03-31T00:07:36.353Z,515.00
2023-03-31T00:08:36.501Z,504.00
2023-03-31T00:09:36.579Z,518.00
2023-03-31T00:10:36.648Z,500.00
2023-03-31T00:11:36.705Z,501.00
2023-03-31T00:12:36.720Z,505.00
2023-03-31T00:13:36.965Z,500.00
2023-03-31T00:14:36.838Z,507.00
2023-03-31T00:15:36.882Z,525.00
2023-03-31T00:16:37.075Z,515.00
2023-03-31T00:17:37.031Z,518.00
2023-03-31T00:18:37.043Z,515.00
2023-03-31T00:19:37.114Z,504.00
2023-03-31T00:20:37.153Z,512.00
2023-03-31T00:21:37.208Z,529.00
2023-03-31T00:22:37.259Z,517.00
2023-03-31T00:23:37.301Z,528.00
2023-03-31T00:24:37.363Z,536.00
2023-03-31T00:25:37.380Z,541.00
2023-03-31T00:26:37.442Z,546.00
2023-03-31T00:27:37.496Z,548.00
2023-03-31T00:28:37.533Z,543.00
2023-03-31T00:29:37.601Z,544.00
2023-03-31T00:30:37.641Z,552.00
2023-03-31T00:31:37.726Z,546.00
2023-03-31T00:32:37.760Z,541.00
2023-03-31T00:33:37.805Z,548.00
2023-03-31T00:34:37.855Z,544.00
2023-03-31T00:35:37.937Z,539.00
2023-03-31T00:36:37.953Z,535.00
2023-03-31T00:37:37.995Z,551.00
2023-03-31T00:38:38.074Z,542.00
2023-03-31T00:39:38.095Z,551.00
2023-03-31T00:40:38.142Z,542.00
2023-03-31T00:41:38.185Z,531.00
2023-03-31T00:42:38.308Z,534.00
2023-03-31T00:43:38.288Z,537.00
2023-03-31T00:44:38.346Z,540.00
2023-03-31T00:45:38.430Z,540.00
2023-03-31T00:46:38.415Z,539.00
2023-03-31T00:47:38.481Z,541.00
2023-03-31T00:48:38.531Z,543.00
2023-03-31T00:49:38.550Z,542.00
2023-03-31T00:50:38.594Z,537.00
2023-03-31T00:51:38.635Z,539.00
2023-03-31T00:52:38.729Z,542.00
2023-03-31T00:53:38.752Z,543.00
2023-03-31T00:54:38.796Z,540.00
2023-03-31T00:55:38.847Z,538.00
2023-03-31T00:56:38.890Z,540.00
2023-03-31T00:57:38.942Z,538.00
2023-03-31T00:58:38.982Z,534.00
2023-03-31T00:59:39.054Z,543.00
2023-03-31T01:00:39.061Z,539.00
2023-03-31T01:01:39.244Z,539.00
2023-03-31T01:02:39.191Z,545.00
2023-03-31T01:03:39.282Z,542.00
2023-03-31T01:04:39.289Z,546.00
2023-03-31T01:05:39.304Z,545.00
2023-03-31T01:06:39.405Z,548.00
2023-03-31T01:07:39.401Z,546.00
2023-03-31T01:08:39.450Z,543.00
2023-03-31T01:09:39.495Z,548.00
2023-03-31T01:10:39.542Z,545.00
2023-03-31T01:11:39.552Z,550.00
2023-03-31T01:12:39.606Z,550.00
2023-03-31T01:13:39.664Z,558.00
2023-03-31T01:14:39.714Z,555.00
2023-03-31T01:15:39.806Z,546.00
2023-03-31T01:16:39.907Z,548.00
2023-03-31T01:17:39.967Z,532.00
2023-03-31T01:18:39.962Z,527.00
2023-03-31T01:19:39.936Z,523.00
2023-03-31T01:20:39.996Z,524.00
2023-03-31T01:21:40.032Z,514.00
2023-03-31T01:22:40.090Z,509.00
2023-03-31T01:23:40.130Z,506.00
2023-03-31T01:24:40.198Z,500.00
2023-03-31T01:25:40.240Z,505.00
2023-03-31T01:26:40.272Z,504.00
2023-03-31T01:27:40.326Z,505.00
2023-03-31T01:28:40.368Z,512.00
2023-03-31T01:29:40.415Z,518.00
2023-03-31T01:30:40.452Z,526.00
2023-03-31T01:31:40.582Z,533.00
2023-03-31T01:32:40.622Z,535.00
2023-03-31T01:33:40.615Z,534.00
2023-03-31T01:34:40.612Z,530.00
2023-03-31T01:35:40.719Z,528.00
2023-03-31T01:36:40.690Z,524.00
2023-03-31T01:37:40.722Z,513.00
2023-03-31T01:38:40.791Z,510.00
2023-03-31T01:39:40.838Z,510.00
2023-03-31T01:40:40.911Z,509.00
2023-03-31T01:41:40.975Z,516.00
2023-03-31T01:42:41.003Z,515.00
2023-03-31T01:43:41.063Z,508.00
2023-03-31T01:44:41.125Z,525.00
2023-03-31T01:45:41.152Z,530.00
2023-03-31T01:46:41.230Z,531.00
2023-03-31T01:47:41.258Z,531.00
2023-03-31T01:48:41.325Z,531.00
2023-03-31T01:49:41.376Z,540.00
2023-03-31T01:50:41.429Z,536.00
2023-03-31T01:51:41.673Z,542.00
2023-03-31T01:52:41.562Z,543.00
2023-03-31T01:53:41.608Z,543.00
2023-03-31T01:54:41.655Z,550.00
2023-03-31T01:55:41.697Z,550.00
2023-03-31T01:56:41.796Z,554.00
2023-03-31T01:57:41.789Z,546.00
2023-03-31T01:58:41.843Z,543.00
2023-03-31T01:59:41.882Z,544.00
2023-03-31T02:00:41.901Z,545.00
2023-03-31T02:01:41.974Z,548.00
2023-03-31T02:02:42.062Z,541.00
2023-03-31T02:03:42.141Z,541.00
2023-03-31T02:04:42.107Z,542.00
2023-03-31T02:05:42.152Z,539.00
2023-03-31T02:06:42.234Z,525.00
2023-03-31T02:07:42.323Z,519.00
2023-03-31T02:08:42.320Z,518.00
2023-03-31T02:09:42.360Z,517.00
2023-03-31T02:10:42.424Z,512.00
2023-03-31T02:11:42.446Z,520.00
2023-03-31T02:12:42.527Z,533.00
2023-03-31T02:13:42.583Z,524.00
2023-03-31T02:14:42.590Z,527.00
2023-03-31T02:15:42.648Z,513.00
2023-03-31T02:16:42.721Z,510.00
2023-03-31T02:17:42.770Z,500.00
2023-03-31T02:18:42.787Z,508.00
2023-03-31T02:19:42.846Z,500.00
2023-03-31T02:20:42.934Z,502.00
2023-03-31T02:21:42.987Z,502.00
2023-03-31T02:22:43.034Z,525.00
2023-03-31T02:23:43.087Z,517.00
2023-03-31T02:24:43.076Z,516.00
2023-03-31T02:25:43.144Z,527.00
2023-03-31T02:26:43.310Z,523.00
2023-03-31T02:27:43.361Z,524.00
2023-03-31T02:28:43.517Z,527.00
2023-03-31T02:29:43.476Z,536.00
2023-03-31T02:30:43.540Z,528.00
2023-03-31T02:31:43.667Z,536.00
2023-03-31T02:32:43.676Z,538.00
2023-03-31T02:33:43.735Z,536.00
2023-03-31T02:34:43.755Z,542.00
2023-03-31T02:35:43.850Z,540.00
2023-03-31T02:36:43.810Z,536.00
2023-03-31T02:37:43.879Z,543.00
2023-03-31T02:38:43.960Z,543.00
2023-03-31T02:39:44.021Z,539.00
2023-03-31T02:40:44.041Z,538.00
2023-03-31T02:41:44.102Z,539.00
2023-03-31T02:42:44.126Z,539.00
2023-03-31T02:43:44.121Z,533.00
2023-03-31T02:44:44.130Z,525.00
2023-03-31T02:45:44.223Z,530.00
2023-03-31T02:46:44.250Z,530.00
2023-03-31T02:47:44.334Z,531.00
2023-03-31T02:48:44.361Z,531.00
2023-03-31T02:49:44.394Z,533.00
2023-03-31T02:50:44.474Z,537.00
2023-03-31T02:51:44.533Z,543.00
2023-03-31T02:52:44.564Z,549.00
2023-03-31T02:53:44.644Z,551.00
2023-03-31T02:54:44.700Z,548.00
2023-03-31T02:55:44.763Z,554.00
2023-03-31T02:56:44.844Z,551.00
2023-03-31T02:57:44.869Z,552.00
2023-03-31T02:58:44.908Z,557.00
2023-03-31T02:59:44.958Z,552.00
2023-03-31T03:00:45.024Z,555.00
2023-03-31T03:01:45.126Z,556.00
2023-03-31T03:02:45.172Z,555.00
2023-03-31T03:03:45.194Z,552.00
2023-03-31T03:04:45.247Z,547.00
2023-03-31T03:05:45.280Z,547.00
2023-03-31T03:06:45.367Z,544.00
2023-03-31T03:07:45.398Z,543.00
2023-03-31T03:08:45.482Z,547.00
2023-03-31T03:09:45.528Z,544.00
2023-03-31T03:10:45.609Z,546.00
2023-03-31T03:11:45.675Z,550.00
2023-03-31T03:12:45.724Z,545.00
2023-03-31T03:13:45.779Z,551.00
2023-03-31T03:14:45.853Z,547.00
2023-03-31T03:15:45.872Z,557.00
2023-03-31T03:16:45.973Z,558.00
2023-03-31T03:17:46.078Z,565.00
2023-03-31T03:18:46.022Z,565.00
2023-03-31T03:19:46.036Z,572.00
2023-03-31T03:20:46.090Z,569.00
2023-03-31T03:21:46.148Z,569.00
2023-03-31T03:22:46.217Z,573.00
2023-03-31T03:23:46.271Z,571.00
2023-03-31T03:24:46.306Z,571.00
2023-03-31T03:25:46.297Z,567.00
2023-03-31T03:26:46.348Z,569.00
2023-03-31T03:27:46.421Z,567.00
2023-03-31T03:28:46.462Z,568.00
2023-03-31T03:29:46.537Z,568.00
2023-03-31T03:30:46.587Z,571.00
2023-03-31T03:31:46.646Z,573.00
2023-03-31T03:32:46.772Z,560.00
2023-03-31T03:33:46.776Z,556.00
2023-03-31T03:34:46.811Z,546.00
2023-03-31T03:35:46.947Z,534.00
2023-03-31T03:36:46.931Z,533.00
2023-03-31T03:37:46.992Z,527.00
2023-03-31T03:38:47.085Z,529.00
2023-03-31T03:39:47.112Z,516.00
2023-03-31T03:40:48.893Z,524.00
2023-03-31T03:41:47.149Z,540.00
2023-03-31T03:42:47.137Z,533.00
2023-03-31T03:43:47.141Z,547.00
2023-03-31T03:44:47.131Z,551.00
2023-03-31T03:45:47.118Z,559.00
2023-03-31T03:46:47.140Z,560.00
2023-03-31T03:47:47.132Z,561.00
2023-03-31T03:48:47.118Z,567.00
2023-03-31T03:49:47.105Z,564.00
2023-03-31T03:50:47.073Z,571.00
2023-03-31T03:51:47.108Z,572.00
2023-03-31T03:52:47.051Z,569.00
2023-03-31T03:53:47.066Z,578.00
2023-03-31T03:54:47.037Z,575.00
2023-03-31T03:55:47.026Z,576.00
2023-03-31T03:56:47.056Z,572.00
2023-03-31T03:57:47.024Z,573.00
2023-03-31T03:58:47.006Z,576.00
2023-03-31T03:59:47.013Z,580.00
2023-03-31T04:00:47.001Z,576.00
2023-03-31T04:01:47.008Z,574.00
2023-03-31T04:02:47.074Z,576.00
2023-03-31T04:03:46.985Z,567.00
2023-03-31T04:04:47.110Z,563.00
2023-03-31T04:05:46.965Z,567.00
2023-03-31T04:06:46.967Z,570.00
2023-03-31T04:07:46.964Z,571.00
2023-03-31T04:08:46.959Z,567.00
2023-03-31T04:09:46.925Z,568.00
2023-03-31T04:10:46.935Z,566.00
2023-03-31T04:11:46.924Z,562.00
2023-03-31T04:12:46.935Z,559.00
2023-03-31T04:13:46.915Z,555.00
2023-03-31T04:14:46.885Z,552.00
2023-03-31T04:15:46.956Z,545.00
2023-03-31T04:16:47.051Z,552.00
2023-03-31T04:17:46.878Z,555.00
2023-03-31T04:18:46.855Z,555.00
2023-03-31T04:19:46.858Z,562.00
2023-03-31T04:20:46.887Z,566.00
2023-03-31T04:21:46.966Z,567.00
2023-03-31T04:22:47.021Z,568.00
2023-03-31T04:23:47.152Z,572.00
2023-03-31T04:24:47.128Z,568.00
2023-03-31T04:25:47.188Z,563.00
2023-03-31T04:26:47.260Z,567.00
2023-03-31T04:27:47.325Z,559.00
2023-03-31T04:28:47.383Z,563.00
2023-03-31T04:29:47.452Z,568.00
2023-03-31T04:30:47.510Z,571.00
2023-03-31T04:31:47.588Z,573.00
2023-03-31T04:32:47.620Z,575.00
2023-03-31T04:33:47.619Z,576.00
2023-03-31T04:34:47.666Z,576.00
2023-03-31T04:35:47.749Z,578.00
2023-03-31T04:36:48.221Z,578.00
2023-03-31T04:37:47.851Z,577.00
2023-03-31T04:38:47.893Z,580.00
2023-03-31T04:39:47.966Z,579.00
2023-03-31T04:40:48.029Z,574.00
2023-03-31T04:41:48.077Z,572.00
2023-03-31T04:42:48.136Z,573.00
2023-03-31T04:43:48.183Z,575.00
2023-03-31T04:44:48.212Z,574.00
2023-03-31T04:45:48.296Z,575.00
2023-03-31T04:46:48.335Z,580.00
2023-03-31T04:47:48.464Z,578.00
2023-03-31T04:48:48.483Z,582.00
2023-03-31T04:49:48.466Z,583.00
2023-03-31T04:50:48.521Z,582.00
2023-03-31T04:51:48.635Z,580.00
2023-03-31T04:52:48.645Z,578.00
2023-03-31T04:53:48.669Z,585.00
2023-03-31T04:54:48.744Z,581.00
2023-03-31T04:55:48.825Z,581.00
2023-03-31T04:56:48.894Z,579.00
2023-03-31T04:57:48.949Z,577.00
2023-03-31T04:58:49.084Z,576.00
2023-03-31T04:59:49.123Z,577.00
2023-03-31T05:00:49.159Z,583.00
2023-03-31T05:01:49.212Z,579.00
2023-03-31T05:02:49.348Z,578.00
2023-03-31T05:03:49.301Z,580.00
2023-03-31T05:04:49.352Z,586.00
2023-03-31T05:05:49.414Z,582.00
2023-03-31T05:06:49.420Z,587.00
2023-03-31T05:07:49.493Z,586.00
2023-03-31T05:08:49.565Z,587.00
2023-03-31T05:09:49.602Z,587.00
2023-03-31T05:10:49.705Z,582.00
2023-03-31T05:11:49.739Z,584.00
2023-03-31T05:12:49.819Z,584.00
2023-03-31T05:13:49.829Z,585.00
2023-03-31T05:14:49.872Z,586.00
2023-03-31T05:15:49.937Z,587.00
2023-03-31T05:16:50.015Z,589.00
2023-03-31T05:17:49.974Z,591.00
2023-03-31T05:18:50.046Z,588.00
2023-03-31T05:19:50.046Z,590.00
2023-03-31T05:20:50.113Z,591.00
2023-03-31T05:21:50.175Z,590.00
2023-03-31T05:22:50.236Z,589.00
2023-03-31T05:23:50.293Z,591.00
2023-03-31T05:24:50.295Z,591.00
2023-03-31T05:25:50.341Z,601.00
2023-03-31T05:26:50.415Z,616.00
2023-03-31T05:27:50.462Z,634.00
2023-03-31T05:28:50.501Z,628.00
2023-03-31T05:29:50.511Z,621.00
2023-03-31T05:30:50.532Z,641.00
2023-03-31T05:31:50.592Z,652.00
2023-03-31T05:32:50.594Z,660.00
2023-03-31T05:33:50.649Z,685.00
2023-03-31T05:34:52.169Z,714.00
2023-03-31T05:35:50.784Z,868.00
2023-03-31T05:36:50.786Z,948.00
2023-03-31T05:37:50.807Z,859.00
2023-03-31T05:38:50.841Z,850.00
2023-03-31T05:39:50.917Z,889.00
2023-03-31T05:40:50.963Z,929.00
2023-03-31T05:41:51.020Z,994.00
2023-03-31T05:42:51.076Z,1007.00
2023-03-31T05:43:51.030Z,1036.00
2023-03-31T05:44:51.085Z,1038.00
2023-03-31T05:45:51.184Z,1075.00
2023-03-31T05:46:51.260Z,1109.00
2023-03-31T05:47:51.239Z,1168.00
2023-03-31T05:48:51.180Z,1188.00
2023-03-31T05:49:51.239Z,1232.00
2023-03-31T05:50:51.239Z,1339.00
2023-03-31T05:51:51.260Z,1425.00
2023-03-31T05:52:51.606Z,1445.00
2023-03-31T05:53:51.335Z,1429.00
2023-03-31T05:54:51.358Z,1402.00
2023-03-31T05:55:51.414Z,1402.00
2023-03-31T05:56:51.468Z,1348.00
2023-03-31T05:57:51.452Z,1170.00
2023-03-31T05:58:51.495Z,1062.00
2023-03-31T05:59:51.550Z,1098.00
2023-03-31T06:00:51.640Z,1082.00
2023-03-31T06:01:51.762Z,1028.00
2023-03-31T06:02:51.833Z,946.00
2023-03-31T06:03:51.924Z,938.00
2023-03-31T06:04:51.808Z,1069.00
2023-03-31T06:05:51.862Z,1055.00
2023-03-31T06:06:51.883Z,1066.00
2023-03-31T06:07:51.952Z,1104.00
2023-03-31T06:08:52.001Z,1108.00
2023-03-31T06:09:52.603Z,1116.00
2023-03-31T06:10:52.087Z,1135.00
2023-03-31T06:11:52.191Z,1128.00
2023-03-31T06:12:52.640Z,1126.00
2023-03-31T06:13:52.611Z,1135.00
2023-03-31T06:14:52.312Z,1134.00
2023-03-31T06:15:52.350Z,1155.00
2023-03-31T06:16:52.370Z,1168.00
2023-03-31T06:17:52.441Z,1167.00
2023-03-31T06:18:52.419Z,1047.00
2023-03-31T06:19:52.447Z,1031.00
2023-03-31T06:20:52.466Z,1047.00
2023-03-31T06:21:52.555Z,989.00
2023-03-31T06:22:52.624Z,973.00
2023-03-31T06:23:52.668Z,953.00
2023-03-31T06:24:52.658Z,952.00
2023-03-31T06:25:52.721Z,1251.00
2023-03-31T06:26:53.938Z,1294.00
2023-03-31T06:27:52.870Z,1283.00
2023-03-31T06:28:52.934Z,1403.00
2023-03-31T06:29:52.994Z,1113.00
2023-03-31T06:30:53.021Z,1040.00
2023-03-31T06:31:53.114Z,988.00
2023-03-31T06:32:53.197Z,1033.00
2023-03-31T06:33:53.648Z,1072.00
2023-03-31T06:34:53.188Z,1101.00
2023-03-31T06:35:53.217Z,1217.00
2023-03-31T06:36:53.254Z,1184.00
2023-03-31T06:37:53.315Z,1152.00
2023-03-31T06:38:53.341Z,1133.00
2023-03-31T06:39:53.433Z,1112.00
2023-03-31T06:40:53.507Z,1067.00
2023-03-31T06:41:53.576Z,1085.00
2023-03-31T06:42:53.605Z,1097.00
2023-03-31T06:43:53.659Z,1100.00
2023-03-31T06:44:53.695Z,1078.00
2023-03-31T06:45:54.053Z,1079.00
2023-03-31T06:46:53.807Z,1096.00
2023-03-31T06:47:53.902Z,1110.00
2023-03-31T06:48:54.104Z,1106.00
2023-03-31T06:49:53.958Z,1104.00
2023-03-31T06:50:54.043Z,1105.00
2023-03-31T06:51:54.061Z,1109.00
2023-03-31T06:52:54.102Z,1126.00
2023-03-31T06:53:54.624Z,1140.00
2023-03-31T06:54:54.183Z,1157.00
2023-03-31T06:55:54.186Z,1157.00
2023-03-31T06:56:54.393Z,1168.00
2023-03-31T06:57:54.221Z,1179.00
2023-03-31T06:58:54.249Z,1190.00
2023-03-31T06:59:54.239Z,1192.00
2023-03-31T07:00:54.321Z,1200.00
2023-03-31T07:01:54.355Z,1207.00
2023-03-31T07:02:54.398Z,1207.00
2023-03-31T07:03:54.731Z,1229.00
2023-03-31T07:04:54.277Z,1230.00
2023-03-31T07:05:54.281Z,1225.00
2023-03-31T07:06:54.264Z,1234.00
2023-03-31T07:07:54.309Z,1233.00
2023-03-31T07:08:54.663Z,1247.00
2023-03-31T07:09:56.285Z,1252.00
2023-03-31T07:10:54.503Z,1260.00
2023-03-31T07:11:56.543Z,1299.00
2023-03-31T07:12:54.609Z,1325.00
2023-03-31T07:13:54.654Z,1338.00
2023-03-31T07:14:54.707Z,1336.00
2023-03-31T07:15:54.787Z,1351.00
2023-03-31T07:16:54.798Z,1352.00
2023-03-31T07:17:54.863Z,1370.00
2023-03-31T07:18:54.919Z,1404.00
2023-03-31T07:19:54.902Z,1458.00
2023-03-31T07:20:54.986Z,1484.00
2023-03-31T07:21:54.994Z,1524.00
2023-03-31T07:22:55.021Z,1546.00
2023-03-31T07:23:55.092Z,1575.00
2023-03-31T07:24:55.122Z,1615.00
2023-03-31T07:25:55.151Z,1678.00
2023-03-31T07:26:55.187Z,1883.00
2023-03-31T07:27:55.276Z,1874.00
2023-03-31T07:28:55.297Z,1868.00
2023-03-31T07:29:55.624Z,1866.00
2023-03-31T07:30:55.433Z,1882.00
2023-03-31T07:31:55.641Z,1858.00
2023-03-31T07:32:55.636Z,1731.00
2023-03-31T07:33:55.617Z,1624.00
2023-03-31T07:34:55.614Z,1568.00
2023-03-31T07:36:10.015Z,1569.00
2023-03-31T07:36:56.682Z,1571.00
2023-03-31T07:37:55.650Z,1574.00
2023-03-31T07:38:56.150Z,1461.00
2023-03-31T07:39:55.618Z,1460.00
2023-03-31T07:41:07.787Z,1377.00
2023-03-31T07:41:56.665Z,1402.00
2023-03-31T07:42:55.738Z,1364.00
2023-03-31T07:43:55.763Z,1354.00
2023-03-31T07:44:55.794Z,1292.00
2023-03-31T07:45:55.863Z,1246.00
2023-03-31T07:46:55.889Z,1203.00
2023-03-31T07:47:55.886Z,1243.00
2023-03-31T07:48:55.871Z,1197.00
2023-03-31T07:49:55.892Z,1170.00
2023-03-31T07:50:55.916Z,1230.00
2023-03-31T07:51:55.909Z,1290.00
2023-03-31T07:52:55.972Z,1301.00
2023-03-31T07:53:55.894Z,1338.00
2023-03-31T07:54:55.954Z,1356.00
2023-03-31T07:55:55.914Z,1439.00
2023-03-31T07:56:56.001Z,1448.00
2023-03-31T07:57:55.922Z,1763.00
2023-03-31T07:58:57.688Z,1643.00
2023-03-31T07:59:56.012Z,1555.00
2023-03-31T08:00:56.044Z,1519.00
2023-03-31T08:01:56.178Z,1487.00
2023-03-31T08:02:56.163Z,1480.00
2023-03-31T08:03:56.373Z,1478.00
2023-03-31T08:04:56.279Z,1467.00
2023-03-31T08:05:56.289Z,1487.00
2023-03-31T08:06:56.379Z,1519.00
2023-03-31T08:07:56.382Z,1509.00
2023-03-31T08:08:56.636Z,1489.00
2023-03-31T08:09:56.453Z,1450.00
2023-03-31T08:10:56.469Z,1455.00
2023-03-31T08:11:56.461Z,1454.00
2023-03-31T08:12:56.514Z,1468.00
2023-03-31T08:13:56.534Z,1494.00
2023-03-31T08:14:56.534Z,1484.00
2023-03-31T08:15:56.553Z,1490.00
2023-03-31T08:16:56.540Z,1472.00
2023-03-31T08:17:56.651Z,1467.00
2023-03-31T08:18:56.621Z,1455.00
2023-03-31T08:19:56.660Z,1446.00
2023-03-31T08:20:56.695Z,1476.00
2023-03-31T08:21:57.187Z,1500.00
2023-03-31T08:22:56.693Z,1329.00
2023-03-31T08:23:56.772Z,1284.00
2023-03-31T08:24:56.792Z,1251.00
2023-03-31T08:25:56.827Z,1181.00
2023-03-31T08:26:57.139Z,1202.00
2023-03-31T08:27:57.640Z,1154.00
2023-03-31T08:28:57.008Z,1160.00
2023-03-31T08:29:57.036Z,1176.00
2023-03-31T08:30:57.128Z,1119.00
2023-03-31T08:31:57.268Z,1031.00
2023-03-31T08:32:57.256Z,997.00
2023-03-31T08:33:57.250Z,997.00
2023-03-31T08:34:57.397Z,910.00
2023-03-31T08:35:57.429Z,913.00
2023-03-31T08:36:57.641Z,912.00
2023-03-31T08:37:57.516Z,924.00
2023-03-31T08:38:57.574Z,816.00
2023-03-31T08:39:58.184Z,647.00
2023-03-31T08:40:57.722Z,653.00
2023-03-31T08:41:57.703Z,656.00
2023-03-31T08:42:57.746Z,644.00
2023-03-31T08:43:57.791Z,644.00
2023-03-31T08:44:57.847Z,613.00
2023-03-31T08:45:57.940Z,552.00
2023-03-31T08:46:57.965Z,500.00
2023-03-31T08:47:58.076Z,500.00
2023-03-31T08:48:58.002Z,502.00
2023-03-31T08:49:58.003Z,500.00
2023-03-31T08:50:58.033Z,502.00
2023-03-31T08:51:58.684Z,497.00
2023-03-31T08:52:58.119Z,511.00
2023-03-31T08:53:58.113Z,529.00
2023-03-31T08:54:58.185Z,536.00
2023-03-31T08:55:58.250Z,514.00
2023-03-31T08:56:58.372Z,495.00
2023-03-31T08:57:58.326Z,512.00
2023-03-31T08:58:58.388Z,500.00
2023-03-31T08:59:58.668Z,500.00
2023-03-31T09:00:58.460Z,500.00
2023-03-31T09:01:58.534Z,506.00
2023-03-31T09:02:58.585Z,533.00
2023-03-31T09:03:58.696Z,514.00
2023-03-31T09:04:58.596Z,564.00
2023-03-31T09:06:01.006Z,608.00
2023-03-31T09:06:58.795Z,622.00
2023-03-31T09:07:59.155Z,614.00
2023-03-31T09:08:58.879Z,573.00
2023-03-31T09:09:59.152Z,567.00
2023-03-31T09:10:58.918Z,541.00
2023-03-31T09:11:58.985Z,579.00
2023-03-31T09:12:59.228Z,697.00
2023-03-31T09:13:58.964Z,742.00
2023-03-31T09:14:59.012Z,805.00
2023-03-31T09:15:59.053Z,911.00
2023-03-31T09:16:59.171Z,1042.00
2023-03-31T09:17:59.220Z,1002.00
2023-03-31T09:18:59.224Z,1144.00
2023-03-31T09:19:59.289Z,1110.00
2023-03-31T09:20:59.314Z,863.00
2023-03-31T09:21:59.354Z,797.00
2023-03-31T09:22:59.433Z,651.00
2023-03-31T09:23:59.469Z,599.00
2023-03-31T09:24:59.529Z,595.00
2023-03-31T09:25:59.635Z,666.00
2023-03-31T09:26:59.657Z,747.00
2023-03-31T09:27:59.676Z,715.00
2023-03-31T09:28:59.708Z,798.00
2023-03-31T09:29:59.773Z,891.00
2023-03-31T09:30:59.816Z,1096.00
2023-03-31T09:31:59.947Z,1154.00
2023-03-31T09:32:59.972Z,1237.00
2023-03-31T09:33:59.933Z,1269.00
2023-03-31T09:35:00.195Z,1401.00
2023-03-31T09:35:59.997Z,1487.00
2023-03-31T09:37:00.027Z,1552.00
2023-03-31T09:38:00.025Z,1601.00
2023-03-31T09:38:59.987Z,1644.00
2023-03-31T09:40:00.226Z,1673.00
2023-03-31T09:40:59.992Z,1715.00
2023-03-31T09:42:00.037Z,1741.00
2023-03-31T09:43:00.096Z,1690.00
2023-03-31T09:44:00.111Z,1690.00
2023-03-31T09:45:00.168Z,1724.00
2023-03-31T09:47:00.308Z,1781.00
2023-03-31T09:48:00.236Z,1703.00
2023-03-31T09:49:00.193Z,1645.00
2023-03-31T09:50:00.320Z,1631.00
2023-03-31T09:51:00.163Z,1746.00
2023-03-31T09:52:00.175Z,1797.00
2023-03-31T09:53:00.182Z,1794.00
2023-03-31T09:54:00.166Z,1762.00
2023-03-31T09:55:00.247Z,1765.00
2023-03-31T09:56:00.161Z,1755.00
2023-03-31T09:57:00.229Z,1817.00
2023-03-31T09:58:00.198Z,1748.00
2023-03-31T09:59:00.186Z,1683.00
2023-03-31T10:00:00.195Z,1643.00
2023-03-31T10:01:00.161Z,1624.00
2023-03-31T10:02:00.404Z,1602.00
2023-03-31T10:03:00.244Z,1663.00
2023-03-31T10:04:00.191Z,1668.00
2023-03-31T10:05:00.202Z,1632.00
2023-03-31T10:06:00.050Z,1439.00
2023-03-31T10:07:00.094Z,1404.00
2023-03-31T10:08:00.123Z,1287.00
2023-03-31T10:09:00.031Z,1259.00
2023-03-31T10:10:00.265Z,1320.00
2023-03-31T10:11:00.197Z,1374.00
2023-03-31T10:12:00.137Z,1439.00
2023-03-31T10:13:00.016Z,1425.00
2023-03-31T10:14:00.013Z,1365.00
2023-03-31T10:15:00.009Z,1412.00
2023-03-31T10:16:00.008Z,1372.00
2023-03-31T10:17:00.003Z,1280.00
2023-03-31T10:18:00.000Z,1214.00
2023-03-31T10:18:59.975Z,1219.00
2023-03-31T10:19:59.973Z,1074.00
2023-03-31T10:20:59.961Z,1054.00
2023-03-31T10:21:59.964Z,1135.00
2023-03-31T10:22:59.999Z,1245.00
2023-03-31T10:24:00.070Z,1378.00
2023-03-31T10:25:00.215Z,1474.00
2023-03-31T10:26:00.168Z,1545.00
2023-03-31T10:27:00.190Z,1647.00
2023-03-31T10:28:00.230Z,1737.00
2023-03-31T10:29:00.281Z,1796.00
2023-03-31T10:30:00.538Z,1839.00
2023-03-31T10:31:00.773Z,1872.00
2023-03-31T10:32:00.628Z,1881.00
2023-03-31T10:33:08.456Z,1902.00
2023-03-31T10:34:01.663Z,1904.00
2023-03-31T10:35:00.656Z,1909.00
2023-03-31T10:36:00.732Z,1919.00
2023-03-31T10:37:00.641Z,1905.00
2023-03-31T10:38:00.634Z,1923.00
2023-03-31T10:39:00.617Z,1815.00
2023-03-31T10:40:00.651Z,1829.00
2023-03-31T10:41:00.809Z,1823.00
2023-03-31T10:42:00.597Z,1801.00
2023-03-31T10:43:00.643Z,1838.00
2023-03-31T10:44:00.683Z,1790.00
2023-03-31T10:45:00.758Z,1777.00
2023-03-31T10:46:00.828Z,1758.00
2023-03-31T10:47:00.979Z,1811.00
2023-03-31T10:48:00.965Z,1802.00
2023-03-31T10:49:01.049Z,1766.00
2023-03-31T10:50:01.046Z,1815.00
2023-03-31T10:51:01.192Z,1831.00
2023-03-31T10:52:01.118Z,1856.00
2023-03-31T10:53:01.170Z,1850.00
2023-03-31T10:54:01.199Z,1807.00
2023-03-31T10:55:01.264Z,1765.00
2023-03-31T10:56:01.713Z,1765.00
2023-03-31T10:57:01.332Z,1706.00
2023-03-31T10:58:01.354Z,1699.00
2023-03-31T10:59:05.928Z,1714.00
2023-03-31T11:00:02.402Z,1675.00
2023-03-31T11:01:01.692Z,1656.00
2023-03-31T11:02:01.437Z,1616.00
2023-03-31T11:03:01.464Z,1594.00
2023-03-31T11:04:01.469Z,1611.00
2023-03-31T11:05:01.402Z,1667.00
2023-03-31T11:06:01.708Z,1700.00
2023-03-31T11:07:01.423Z,1693.00
2023-03-31T11:08:01.438Z,1652.00
2023-03-31T11:09:01.415Z,1679.00
2023-03-31T11:10:01.429Z,1768.00
2023-03-31T11:11:01.759Z,1718.00
2023-03-31T11:12:01.531Z,1611.00
2023-03-31T11:13:01.559Z,1585.00
2023-03-31T11:14:01.579Z,1646.00
2023-03-31T11:15:01.623Z,1676.00
2023-03-31T11:16:01.658Z,1619.00
2023-03-31T11:17:01.657Z,1676.00
2023-03-31T11:18:01.699Z,1617.00
2023-03-31T11:19:01.652Z,1534.00
2023-03-31T11:20:01.681Z,1465.00
2023-03-31T11:21:01.684Z,1442.00
2023-03-31T11:22:01.670Z,1349.00
2023-03-31T11:23:01.713Z,1373.00
2023-03-31T11:24:01.681Z,1360.00
2023-03-31T11:25:01.696Z,1427.00
2023-03-31T11:26:01.692Z,1349.00
2023-03-31T11:27:01.719Z,1322.00
2023-03-31T11:28:01.727Z,1357.00
2023-03-31T11:29:01.766Z,1362.00
2023-03-31T11:30:01.766Z,1326.00
2023-03-31T11:31:01.776Z,1323.00
2023-03-31T11:32:01.877Z,1312.00
2023-03-31T11:33:01.860Z,1278.00
2023-03-31T11:34:01.843Z,1266.00
2023-03-31T11:35:01.864Z,1233.00
2023-03-31T11:36:01.931Z,1208.00
2023-03-31T11:37:01.916Z,1193.00
2023-03-31T11:38:01.951Z,1162.00
2023-03-31T11:39:01.961Z,1073.00
2023-03-31T11:40:02.018Z,1086.00
2023-03-31T11:41:02.030Z,1054.00
2023-03-31T11:42:02.105Z,1020.00
2023-03-31T11:43:02.137Z,983.00
2023-03-31T11:44:02.168Z,924.00
2023-03-31T11:45:02.188Z,891.00
2023-03-31T11:46:02.323Z,846.00
2023-03-31T11:47:02.294Z,809.00
2023-03-31T11:48:02.544Z,767.00
2023-03-31T11:49:02.381Z,765.00
2023-03-31T11:50:02.421Z,738.00
2023-03-31T11:51:02.500Z,685.00
2023-03-31T11:52:02.525Z,669.00
2023-03-31T11:53:02.562Z,659.00
2023-03-31T11:54:02.585Z,662.00
2023-03-31T11:55:03.415Z,666.00
2023-03-31T11:56:02.714Z,661.00
2023-03-31T11:57:02.800Z,645.00
2023-03-31T11:58:02.796Z,644.00
2023-03-31T11:59:02.834Z,640.00
2023-03-31T12:00:02.878Z,644.00
2023-03-31T12:01:03.629Z,640.00
2023-03-31T12:02:03.247Z,639.00
2023-03-31T12:03:03.093Z,638.00
2023-03-31T12:04:03.121Z,635.00
2023-03-31T12:05:03.091Z,628.00
2023-03-31T12:06:03.271Z,618.00
2023-03-31T12:07:03.242Z,609.00
2023-03-31T12:08:03.284Z,602.00
2023-03-31T12:09:03.335Z,592.00
2023-03-31T12:10:03.386Z,569.00
2023-03-31T12:11:03.422Z,551.00
2023-03-31T12:12:03.453Z,552.00
2023-03-31T12:13:03.537Z,538.00
2023-03-31T12:14:03.483Z,542.00
2023-03-31T12:15:03.550Z,529.00
2023-03-31T12:16:03.664Z,519.00
2023-03-31T12:17:03.584Z,504.00
2023-03-31T12:18:03.656Z,500.00
2023-03-31T12:19:03.599Z,500.00
2023-03-31T12:20:03.599Z,504.00
2023-03-31T12:21:03.596Z,500.00